< Cyclone 197904 1979 Season Cyclone 197906 >
Cyclone 197905 (KERRY)
General InformationDetailed Track InformationTrack Information on Google MapsList of All Images || ResourceGoogle EarthGE AnimationAtom FeedGeoJSON
Detalied Best Track Wind (Time Zone = UTC)
Year Month Day Hour Lat. Long. Wind (kt) Gust (kt) Direc. of Major Storm Axis Radius of Major Storm Axis (nm) Radius of Minor Storm Axis (nm) Direc. of Major Gale Axis Radius of Major Gale Axis (nm) Radius of Minor Gale Axis (nm) Image
1979 2 12 23 -8.0 170.1 40 55 symmetric - - symmetric - - Image
1979 2 13 05 -8.0 169.1 50 70 symmetric - - symmetric - - Image
1979 2 13 11 -8.1 168.1 50 70 symmetric - - symmetric - - Image
1979 2 13 17 -8.2 167.0 55 75 symmetric - - symmetric - - Image
1979 2 13 23 -8.2 166.2 65 90 symmetric - - symmetric - - Image
1979 2 14 05 -8.4 164.2 70 100 symmetric - - symmetric - - Image
1979 2 14 11 -8.9 163.1 70 100 symmetric - - symmetric - - Image
1979 2 14 17 -9.2 162.3 70 100 symmetric - - symmetric - - Image
1979 2 14 23 -9.5 162.0 70 100 symmetric - - symmetric - - Image
1979 2 15 05 -10.6 160.9 70 100 symmetric - - symmetric - - Image
1979 2 15 11 -11.2 160.1 75 105 symmetric - - symmetric - - Image
1979 2 15 17 -11.7 159.4 75 105 symmetric - - symmetric - - Image
1979 2 15 23 -12.0 158.8 75 105 symmetric - - symmetric - - Image
1979 2 16 05 -12.5 158.0 80 110 symmetric - - symmetric - - Image
1979 2 16 11 -12.7 157.4 80 110 symmetric - - symmetric - - Image
1979 2 16 17 -13.2 157.3 80 110 symmetric - - symmetric - - Image
1979 2 16 23 -13.7 157.6 80 110 symmetric - - symmetric - - Image
1979 2 17 05 -14.2 158.0 80 110 symmetric - - symmetric - - Image
1979 2 17 11 -14.4 158.3 85 120 symmetric - - symmetric - - Image
1979 2 17 17 -14.8 158.6 90 125 symmetric - - symmetric - - Image
1979 2 17 23 -15.1 158.8 90 125 symmetric - - symmetric - - Image
1979 2 18 05 -15.8 158.7 90 125 symmetric - - symmetric - - Image
1979 2 18 11 -16.2 158.4 90 125 symmetric - - symmetric - - Image
1979 2 18 17 -16.8 157.9 90 125 symmetric - - symmetric - - Image
1979 2 18 23 -17.1 157.4 95 135 symmetric - - symmetric - - Image
1979 2 19 05 -17.6 156.9 95 135 symmetric - - symmetric - - Image
1979 2 19 11 -18.0 156.5 95 135 symmetric - - symmetric - - Image
1979 2 19 17 -18.5 155.9 95 135 symmetric - - symmetric - - Image
1979 2 19 23 -18.8 155.5 100 140 symmetric - - symmetric - - Image
1979 2 20 05 -18.8 155.1 100 140 symmetric - - symmetric - - Image
1979 2 20 11 -18.6 154.9 90 125 symmetric - - symmetric - - Image
1979 2 20 17 -18.2 154.3 85 120 symmetric - - symmetric - - Image
1979 2 20 23 -18.0 154.1 85 120 symmetric - - symmetric - - Image
1979 2 21 05 -17.5 153.9 80 110 symmetric - - symmetric - - Image
1979 2 21 11 -17.3 154.1 80 110 symmetric - - symmetric - - Image
1979 2 21 17 -17.0 154.3 80 110 symmetric - - symmetric - - Image
1979 2 21 23 -16.8 154.1 85 120 symmetric - - symmetric - - Image
1979 2 22 05 -16.5 154.6 85 120 symmetric - - symmetric - - Image
1979 2 22 11 -16.6 155.0 80 110 symmetric - - symmetric - - Image
1979 2 22 17 -16.7 155.6 80 110 symmetric - - symmetric - - Image
1979 2 22 23 -16.8 155.9 80 110 symmetric - - symmetric - - Image
1979 2 23 05 -17.1 156.1 75 105 symmetric - - symmetric - - Image
1979 2 23 11 -17.2 156.4 75 105 symmetric - - symmetric - - Image
1979 2 23 17 -17.3 156.6 75 105 symmetric - - symmetric - - Image
1979 2 23 23 -17.4 156.9 75 105 symmetric - - symmetric - - Image
1979 2 24 05 -17.6 157.1 70 100 symmetric - - symmetric - - Image
1979 2 24 11 -17.7 157.1 70 100 symmetric - - symmetric - - Image
1979 2 24 17 -17.7 156.5 65 90 symmetric - - symmetric - - Image
1979 2 24 23 -17.6 156.1 65 90 symmetric - - symmetric - - Image
1979 2 25 05 -17.4 155.5 60 85 symmetric - - symmetric - - Image
1979 2 25 11 -17.4 155.1 60 85 symmetric - - symmetric - - Image
1979 2 25 17 -17.4 154.4 55 75 symmetric - - symmetric - - Image
1979 2 25 23 -17.4 154.1 55 75 symmetric - - symmetric - - Image
1979 2 26 05 -18.1 153.3 55 75 symmetric - - symmetric - - Image
1979 2 26 11 -18.6 153.0 55 75 symmetric - - symmetric - - Image
1979 2 26 17 -19.2 152.6 50 70 symmetric - - symmetric - - Image
1979 2 26 23 -19.5 152.8 50 70 symmetric - - symmetric - - Image
1979 2 27 05 -20.0 153.0 50 70 symmetric - - symmetric - - Image
1979 2 27 11 -20.2 152.8 50 70 symmetric - - symmetric - - Image
1979 2 27 17 -20.2 152.4 50 70 symmetric - - symmetric - - Image
1979 2 27 23 -20.2 152.2 50 70 symmetric - - symmetric - - Image
1979 2 28 05 -20.1 151.3 50 70 symmetric - - symmetric - - Image
1979 2 28 11 -20.2 150.6 55 75 symmetric - - symmetric - - Image
1979 2 28 17 -20.1 149.5 55 75 symmetric - - symmetric - - Image
1979 2 28 23 -20.2 148.9 55 75 symmetric - - symmetric - - Image
1979 3 1 05 -20.0 148.4 50 70 symmetric - - symmetric - - Image
1979 3 1 11 -19.9 148.1 50 70 symmetric - - symmetric - - Image
1979 3 1 17 -19.7 148.0 45 65 symmetric - - symmetric - - Image
1979 3 1 23 -19.6 147.8 30 45 symmetric - - symmetric - - Image
1979 3 2 05 -19.2 147.6 30 45 symmetric - - symmetric - - Image
1979 3 2 11 -18.7 147.4 30 45 symmetric - - symmetric - - Image
1979 3 2 17 -17.8 147.4 30 45 symmetric - - symmetric - - Image
1979 3 2 23 -17.1 147.4 40 55 symmetric - - symmetric - - Image
1979 3 3 05 -16.9 147.5 50 70 symmetric - - symmetric - - Image
1979 3 3 11 -16.8 147.5 45 65 symmetric - - symmetric - - Image
1979 3 3 17 -17.4 147.7 40 55 symmetric - - symmetric - - Image
1979 3 3 23 -18.0 147.9 40 55 symmetric - - symmetric - - Image
1979 3 4 05 -18.8 148.4 35 50 symmetric - - symmetric - - Image
1979 3 4 11 -19.2 149.1 35 50 symmetric - - symmetric - - Image
1979 3 4 17 -20.2 150.0 30 45 symmetric - - symmetric - - Image
1979 3 4 23 -21.4 150.7 30 45 symmetric - - symmetric - - Image
< Cyclone 197904 1979 Season Cyclone 197906 >

Help